Overview Statistics Trail Chart Weather Telemetry Raw packets
 

This is the latest recevied weather packets stored in our database for station/object NO9B. If no packets are shown the sender has not sent any weather packets the latest 10 day(s).

<< 95 96 97 98 99 100 101 >>
Time Temp. Humidity Pressure Rain* Wind** Luminosity Snow
1787948823 29.44° C 46% 1020.8 hPa 0 mm - 291 W/m² -
1787948516 29.44° C 44% 1020.8 hPa 0 mm - 484 W/m² -
1787948212 28.89° C 52% 1020.8 hPa 0 mm - 503 W/m² -
1787947909 29.44° C 45% 1021 hPa 0 mm - 126 W/m² -
1787947606 28.89° C 48% 1020.9 hPa 0 mm - 512 W/m² -
1787947304 28.89° C 48% 1020.8 hPa 0 mm - 523 W/m² -
1787947004 28.33° C 49% 1020.8 hPa 0 mm - 563 W/m² -
1787946702 28.33° C 51% 1020.8 hPa 0 mm - 174 W/m² -
1787946397 28.89° C 51% 1020.7 hPa 0 mm - 53 W/m² -
1787946097 29.44° C 45% 1020.7 hPa 0 mm - 55 W/m² -
1787945793 30° C 47% 1021 hPa 0 mm - 587 W/m² -
1787945492 29.44° C 47% 1021 hPa 0 mm - 506 W/m² -
1787945188 29.44° C 47% 1021.1 hPa 0 mm - 558 W/m² -
1787944886 29.44° C 47% 1021.3 hPa 0 mm - 569 W/m² -
1787944585 29.44° C 47% 1021.2 hPa 0 mm - 590 W/m² -
1787944281 28.89° C 50% 1021.1 hPa 0 mm - 590 W/m² -
1787943976 28.89° C 51% 1021.6 hPa 0 mm - 590 W/m² -
1787943672 28.89° C 47% 1021.5 hPa 0 mm - 595 W/m² -
1787943372 28.89° C 46% 1021.4 hPa 0 mm - 376 W/m² -
1787943067 28.33° C 50% 1021.6 hPa 0 mm - 612 W/m² -
1787942761 28.33° C 51% 1021.6 hPa 0 mm - 98 W/m² -
1787942456 28.33° C 51% 1021.7 hPa 0 mm - 89 W/m² -
1787942156 28.33° C 52% 1021.6 hPa 0 mm - 102 W/m² -
1787941852 28.33° C 51% 1021.5 hPa 0 mm - 628 W/m² -
1787941551 28.33° C 52% 1021.8 hPa 0 mm - 639 W/m² -

* Rain latest hour (hover to see other rain measurements)
** Current wind speed in m/s (hover to see current wind gust speed)